Time;durP1;ratioP1;P1;durP2;ratioP2;P2;SDS_P1;SDS_P2;PMS_P1;PMS_P2;Temp;Humidity;BMP_temperature;BMP_pressure;BME280_temperature;BME280_humidity;BME280_pressure;Samples;Min_cycle;Max_cycle;Signal;HPM_P1;HPM_P2
2021/01/08 00:01:40;;;;;;;8.15;5.32;;;-0.30;99.90;;;;;;5054175;28;20201;-62
2021/01/08 00:04:06;;;;;;;8.73;5.82;;;-0.30;99.90;;;;;;5053901;28;20639;-62
2021/01/08 00:06:33;;;;;;;9.65;4.95;;;-0.30;99.90;;;;;;5054232;28;20705;-62
2021/01/08 00:08:59;;;;;;;8.73;5.05;;;-0.30;99.90;;;;;;5053895;28;20171;-62
2021/01/08 00:11:26;;;;;;;9.80;5.35;;;-0.20;99.90;;;;;;5054483;28;20198;-62
2021/01/08 00:13:52;;;;;;;8.55;5.07;;;-0.30;99.90;;;;;;5053581;28;20202;-62
2021/01/08 00:16:19;;;;;;;8.65;5.40;;;-0.20;99.90;;;;;;5052566;28;20202;-62
2021/01/08 00:18:45;;;;;;;7.68;4.47;;;-0.20;99.90;;;;;;5053882;28;20179;-62
2021/01/08 00:21:12;;;;;;;8.88;5.22;;;-0.20;99.90;;;;;;5053756;28;20187;-62
2021/01/08 00:23:38;;;;;;;10.10;5.30;;;-0.20;99.90;;;;;;5053872;28;20178;-62
2021/01/08 00:26:04;;;;;;;8.45;4.90;;;-0.20;99.90;;;;;;5054094;28;20210;-62
2021/01/08 00:28:30;;;;;;;9.68;5.53;;;-0.30;99.90;;;;;;5054007;28;20186;-61
2021/01/08 00:30:56;;;;;;;7.05;4.70;;;-0.30;99.90;;;;;;5053424;28;20183;-62
2021/01/08 00:33:22;;;;;;;7.90;4.60;;;-0.20;99.90;;;;;;5053785;28;20174;-62
2021/01/08 00:35:49;;;;;;;8.02;5.00;;;-0.20;99.90;;;;;;5053336;28;20197;-62
2021/01/08 00:38:15;;;;;;;8.43;5.55;;;-0.20;99.90;;;;;;5053492;28;20213;-62
2021/01/08 00:40:41;;;;;;;7.97;4.55;;;-0.20;99.90;;;;;;5053410;28;20174;-61
2021/01/08 00:43:07;;;;;;;9.15;5.82;;;-0.20;99.90;;;;;;5053186;28;20175;-61
2021/01/08 00:45:33;;;;;;;9.65;5.72;;;-0.20;99.90;;;;;;5052774;28;20770;-61
2021/01/08 00:47:59;;;;;;;6.93;4.75;;;-0.20;99.90;;;;;;5053414;28;20246;-61
2021/01/08 00:50:25;;;;;;;7.22;4.93;;;-0.10;99.90;;;;;;5053675;28;20179;-62
2021/01/08 00:52:51;;;;;;;8.05;4.97;;;-0.10;99.90;;;;;;5053478;28;20191;-62
2021/01/08 00:55:18;;;;;;;7.40;4.75;;;-0.10;99.90;;;;;;5051815;28;20194;-62
2021/01/08 00:57:44;;;;;;;8.63;5.35;;;-0.10;99.90;;;;;;5050795;28;20229;-61
2021/01/08 01:00:11;;;;;;;8.35;5.10;;;-0.10;99.90;;;;;;5052622;28;20179;-62
2021/01/08 01:02:37;;;;;;;6.55;4.45;;;-0.10;99.90;;;;;;5051959;28;20183;-62
2021/01/08 01:05:03;;;;;;;9.20;5.00;;;-0.10;99.90;;;;;;5052719;28;20194;-61
2021/01/08 01:07:29;;;;;;;7.45;4.70;;;-0.10;99.90;;;;;;5052928;28;20209;-62
2021/01/08 01:09:55;;;;;;;7.25;4.53;;;-0.10;99.90;;;;;;5052452;28;20179;-62
2021/01/08 01:12:22;;;;;;;7.30;4.72;;;-0.10;99.90;;;;;;5052821;28;20187;-61
2021/01/08 01:14:48;;;;;;;6.63;4.43;;;-0.10;99.90;;;;;;5052574;28;20199;-61
2021/01/08 01:17:14;;;;;;;9.75;5.03;;;-0.10;99.90;;;;;;5053260;28;20677;-61
2021/01/08 01:19:40;;;;;;;8.48;4.90;;;-0.10;99.90;;;;;;5052080;28;20185;-62
2021/01/08 01:22:06;;;;;;;8.30;5.30;;;-0.10;99.90;;;;;;5052562;28;20182;-61
2021/01/08 01:24:32;;;;;;;6.45;4.57;;;0.00;99.90;;;;;;5053016;28;20170;-62
2021/01/08 01:26:58;;;;;;;7.75;5.05;;;0.00;99.90;;;;;;5052712;28;20222;-62
2021/01/08 01:29:25;;;;;;;6.72;4.53;;;0.00;99.90;;;;;;5053093;28;20171;-61
2021/01/08 01:31:51;;;;;;;7.53;4.65;;;-0.10;99.90;;;;;;5053000;28;20190;-62
2021/01/08 01:34:18;;;;;;;8.07;5.28;;;0.00;99.90;;;;;;5051872;28;20197;-62
2021/01/08 01:36:45;;;;;;;10.23;5.22;;;0.00;99.90;;;;;;5052283;28;20186;-61
2021/01/08 01:39:14;;;;;;;6.47;4.70;;;-0.10;99.90;;;;;;5051086;28;20178;-62
2021/01/08 01:41:41;;;;;;;7.10;4.90;;;-0.10;99.90;;;;;;5052286;28;20210;-61
2021/01/08 01:44:07;;;;;;;7.43;4.82;;;-0.10;99.90;;;;;;5051656;28;20178;-61
2021/01/08 01:46:33;;;;;;;8.35;4.82;;;-0.10;99.90;;;;;;5052183;28;20626;-62
2021/01/08 01:48:59;;;;;;;9.70;5.13;;;0.00;99.90;;;;;;5052020;28;20206;-62
2021/01/08 01:51:26;;;;;;;8.88;5.22;;;0.00;99.90;;;;;;5052900;28;20163;-62
2021/01/08 01:53:52;;;;;;;8.23;4.65;;;0.00;99.90;;;;;;5018380;28;20557;-62
2021/01/08 01:56:18;;;;;;;7.25;4.68;;;0.00;99.90;;;;;;5052557;28;20170;-61
2021/01/08 01:58:44;;;;;;;8.80;5.07;;;0.00;99.90;;;;;;5052020;28;20214;-61
2021/01/08 02:01:11;;;;;;;9.55;5.03;;;0.00;99.90;;;;;;5051926;28;20197;-62
2021/01/08 02:03:51;;;;;;;7.30;5.05;;;0.00;99.90;;;;;;5050465;28;20186;-62
2021/01/08 02:06:21;;;;;;;7.60;4.75;;;0.00;99.90;;;;;;5050738;28;20174;-62
2021/01/08 02:08:51;;;;;;;6.20;4.47;;;0.00;99.90;;;;;;5050695;28;20178;-62
2021/01/08 02:11:23;;;;;;;7.53;5.28;;;0.10;99.90;;;;;;5051112;28;20166;-62
2021/01/08 02:14:09;;;;;;;6.32;4.43;;;0.00;99.90;;;;;;5026179;28;20186;-62
2021/01/08 02:16:35;;;;;;;8.30;5.30;;;0.00;99.90;;;;;;5049401;28;20167;-61
2021/01/08 02:19:04;;;;;;;7.50;5.03;;;0.00;99.90;;;;;;5050626;28;20527;-62
2021/01/08 02:21:58;;;;;;;9.15;5.05;;;0.00;99.90;;;;;;5034762;28;20190;-61
2021/01/08 02:24:36;;;;;;;8.15;5.22;;;0.00;99.90;;;;;;5024396;28;20186;-61
2021/01/08 02:27:02;;;;;;;7.82;5.10;;;0.00;99.90;;;;;;5015526;28;20207;-61
2021/01/08 02:29:28;;;;;;;8.23;5.25;;;0.00;99.90;;;;;;5050780;28;20550;-62
2021/01/08 02:31:54;;;;;;;7.97;5.35;;;0.10;99.90;;;;;;5035636;28;20171;-62
2021/01/08 02:34:22;;;;;;;8.98;5.00;;;0.10;99.90;;;;;;5038716;28;20623;-62
2021/01/08 02:36:48;;;;;;;9.25;5.35;;;0.00;99.90;;;;;;5054913;28;20160;-62
2021/01/08 02:39:15;;;;;;;8.35;5.20;;;0.10;99.90;;;;;;5038391;28;20175;-61
2021/01/08 02:41:41;;;;;;;9.40;5.20;;;0.10;99.90;;;;;;5056088;28;20537;-61
2021/01/08 02:44:07;;;;;;;7.72;5.15;;;0.10;99.90;;;;;;5053469;28;20187;-62
2021/01/08 02:46:34;;;;;;;9.30;5.10;;;0.10;99.90;;;;;;5038227;28;20178;-62
2021/01/08 02:49:00;;;;;;;8.68;5.13;;;0.10;99.90;;;;;;5055422;28;20174;-62
2021/01/08 02:51:26;;;;;;;8.57;4.88;;;0.10;99.90;;;;;;5056109;28;20170;-61
2021/01/08 02:53:52;;;;;;;7.03;4.53;;;0.10;99.90;;;;;;5054453;28;20171;-61
2021/01/08 02:56:22;;;;;;;7.55;4.82;;;0.10;99.90;;;;;;5037160;28;20206;-62
2021/01/08 02:58:48;;;;;;;7.38;4.57;;;0.00;99.90;;;;;;5054965;28;20210;-62
2021/01/08 03:01:14;;;;;;;7.35;4.47;;;0.00;99.90;;;;;;5056720;28;20174;-62
2021/01/08 03:03:40;;;;;;;6.72;4.32;;;0.00;99.90;;;;;;5056523;28;20179;-62
2021/01/08 03:06:06;;;;;;;6.13;3.95;;;0.00;99.90;;;;;;5037986;28;20193;-60
2021/01/08 03:08:33;;;;;;;6.80;4.32;;;0.00;99.90;;;;;;5055857;28;20178;-62
2021/01/08 03:10:59;;;;;;;8.60;4.60;;;0.00;99.90;;;;;;5055015;28;20179;-62
2021/01/08 03:13:26;;;;;;;6.38;4.30;;;0.00;99.90;;;;;;5055963;28;20173;-62
2021/01/08 03:15:52;;;;;;;8.23;5.07;;;0.00;99.90;;;;;;5037204;28;20202;-61
2021/01/08 03:18:18;;;;;;;7.22;4.80;;;0.00;99.90;;;;;;5055533;28;20210;-61
2021/01/08 03:20:45;;;;;;;6.80;4.75;;;0.00;99.90;;;;;;5055021;28;20175;-62
2021/01/08 03:23:11;;;;;;;6.70;4.35;;;0.00;99.90;;;;;;5055742;28;20179;-62
2021/01/08 03:25:37;;;;;;;6.43;4.30;;;0.00;99.90;;;;;;5052438;28;20211;-62
2021/01/08 03:28:03;;;;;;;8.10;4.55;;;0.10;99.90;;;;;;5053064;28;20179;-61
2021/01/08 03:30:29;;;;;;;5.95;4.25;;;0.00;99.90;;;;;;5054026;28;20208;-62
2021/01/08 03:32:56;;;;;;;6.60;4.25;;;0.00;99.90;;;;;;5053946;28;20651;-62
2021/01/08 03:35:22;;;;;;;6.38;3.72;;;0.00;99.90;;;;;;5053906;28;20650;-62
2021/01/08 03:37:48;;;;;;;6.82;4.07;;;0.00;99.90;;;;;;5053780;28;20213;-62
2021/01/08 03:40:14;;;;;;;6.75;4.13;;;0.00;99.90;;;;;;5053962;28;20185;-62
2021/01/08 03:42:40;;;;;;;7.35;4.03;;;0.10;99.90;;;;;;5053579;28;20191;-61
2021/01/08 03:45:07;;;;;;;7.00;4.80;;;0.00;99.90;;;;;;5052575;28;20175;-62
2021/01/08 03:47:33;;;;;;;8.05;4.18;;;0.00;99.90;;;;;;5053758;28;20558;-61
2021/01/08 03:49:59;;;;;;;6.47;4.55;;;0.10;99.90;;;;;;5053500;28;20596;-62
2021/01/08 03:52:25;;;;;;;7.32;4.10;;;0.10;99.90;;;;;;5052130;28;20643;-62
2021/01/08 03:54:51;;;;;;;6.63;4.15;;;0.00;99.90;;;;;;5052860;28;20174;-61
2021/01/08 03:57:17;;;;;;;6.97;4.57;;;0.10;99.90;;;;;;5053064;28;20182;-60
2021/01/08 03:59:44;;;;;;;7.95;4.35;;;0.10;99.90;;;;;;5051837;28;20191;-60
2021/01/08 04:02:10;;;;;;;8.13;4.28;;;0.10;99.90;;;;;;5052939;28;20579;-60
2021/01/08 04:04:36;;;;;;;7.10;4.70;;;0.00;99.90;;;;;;5053354;28;20178;-60
2021/01/08 04:07:02;;;;;;;5.30;3.63;;;0.10;99.90;;;;;;5053560;28;20187;-60
2021/01/08 04:09:28;;;;;;;6.07;3.97;;;0.10;99.90;;;;;;5053353;28;20546;-60
2021/01/08 04:11:54;;;;;;;6.47;4.07;;;0.10;99.90;;;;;;5052017;28;20175;-60
2021/01/08 04:14:20;;;;;;;6.80;3.85;;;0.10;99.90;;;;;;5053233;28;20205;-60
2021/01/08 04:16:47;;;;;;;6.63;4.28;;;0.10;99.90;;;;;;5053264;28;20170;-60
2021/01/08 04:19:13;;;;;;;6.95;4.53;;;0.10;99.90;;;;;;5053140;28;20221;-60
2021/01/08 04:21:39;;;;;;;9.80;4.85;;;0.20;99.90;;;;;;5052495;28;20175;-60
2021/01/08 04:24:06;;;;;;;7.53;4.70;;;0.20;99.90;;;;;;5052453;28;20182;-60
2021/01/08 04:26:32;;;;;;;7.95;4.43;;;0.20;99.90;;;;;;5029509;28;686344;-60
2021/01/08 04:28:58;;;;;;;7.00;4.60;;;0.20;99.90;;;;;;5054016;28;20674;-60
2021/01/08 04:31:24;;;;;;;6.57;4.20;;;0.20;99.90;;;;;;5054342;28;20162;-60
2021/01/08 04:33:50;;;;;;;7.40;4.22;;;0.20;99.90;;;;;;5053847;28;20191;-60
2021/01/08 04:36:16;;;;;;;6.22;4.00;;;0.20;99.90;;;;;;5053441;28;20566;-60
2021/01/08 04:38:43;;;;;;;6.93;4.20;;;0.20;99.90;;;;;;5053462;28;20711;-60
2021/01/08 04:41:09;;;;;;;6.18;3.88;;;0.20;99.90;;;;;;5051505;28;20634;-60
2021/01/08 04:43:35;;;;;;;7.90;4.53;;;0.20;99.90;;;;;;5053554;28;20190;-60
2021/01/08 04:46:13;;;;;;;7.05;4.70;;;0.30;99.90;;;;;;5051994;28;20182;-60
2021/01/08 04:48:41;;;;;;;7.45;4.45;;;0.30;99.90;;;;;;5052330;28;20173;-60
2021/01/08 04:51:07;;;;;;;8.02;4.93;;;0.30;99.90;;;;;;5035492;28;20170;-60
2021/01/08 04:53:33;;;;;;;6.93;4.50;;;0.30;99.90;;;;;;5051319;28;20190;-60
2021/01/08 04:56:01;;;;;;;6.57;4.30;;;0.30;99.90;;;;;;5051403;28;20179;-59
2021/01/08 04:58:30;;;;;;;7.15;4.35;;;0.30;99.90;;;;;;5052304;28;20199;-60
2021/01/08 05:00:56;;;;;;;7.13;4.47;;;0.30;99.90;;;;;;5053557;28;20167;-60
2021/01/08 05:03:22;;;;;;;9.00;5.25;;;0.30;99.90;;;;;;5036144;28;20163;-60
2021/01/08 05:05:49;;;;;;;7.55;4.35;;;0.30;99.90;;;;;;5051724;28;20179;-60
2021/01/08 05:08:15;;;;;;;7.43;4.55;;;0.30;99.90;;;;;;5053212;28;20202;-60
2021/01/08 05:10:41;;;;;;;7.30;4.40;;;0.30;99.90;;;;;;5053359;28;20174;-60
2021/01/08 05:13:07;;;;;;;7.95;4.43;;;0.30;99.90;;;;;;5053038;28;20185;-61
2021/01/08 05:15:33;;;;;;;6.93;4.55;;;0.30;99.90;;;;;;5052519;28;20678;-60
2021/01/08 05:18:00;;;;;;;7.70;4.78;;;0.30;99.90;;;;;;5053098;28;20202;-60
2021/01/08 05:20:26;;;;;;;6.80;4.20;;;0.30;99.90;;;;;;5035775;28;20167;-60
2021/01/08 05:22:52;;;;;;;7.28;4.38;;;0.30;99.90;;;;;;5053028;28;20186;-60
2021/01/08 05:25:18;;;;;;;7.35;4.43;;;0.30;99.90;;;;;;5053083;28;20187;-60
2021/01/08 05:27:44;;;;;;;8.52;4.82;;;0.30;99.90;;;;;;5053316;28;20201;-60
2021/01/08 05:30:25;;;;;;;8.27;4.45;;;0.30;99.90;;;;;;5051503;28;20198;-60
2021/01/08 05:33:01;;;;;;;6.38;4.30;;;0.30;99.90;;;;;;5052982;28;20163;-60
2021/01/08 05:35:32;;;;;;;7.40;4.18;;;0.30;99.90;;;;;;5051698;28;20209;-60
2021/01/08 05:38:06;;;;;;;7.05;4.07;;;0.30;99.90;;;;;;5052747;28;20658;-60
2021/01/08 05:40:32;;;;;;;7.18;4.28;;;0.30;99.90;;;;;;5053104;28;20167;-60
2021/01/08 05:43:01;;;;;;;8.63;5.03;;;0.30;99.90;;;;;;5052141;28;20186;-60
2021/01/08 05:45:29;;;;;;;7.05;4.65;;;0.30;99.90;;;;;;5052505;28;20534;-60
2021/01/08 05:47:56;;;;;;;6.82;4.28;;;0.30;99.90;;;;;;5050480;28;20187;-60
2021/01/08 05:50:24;;;;;;;7.55;4.57;;;0.30;99.90;;;;;;5051210;28;20645;-60
2021/01/08 05:52:53;;;;;;;6.55;4.25;;;0.30;99.90;;;;;;5052394;28;20183;-61
2021/01/08 05:55:20;;;;;;;7.53;4.63;;;0.30;99.90;;;;;;5052440;28;20181;-61
2021/01/08 05:57:46;;;;;;;10.88;4.35;;;0.30;99.90;;;;;;5035195;28;20572;-61
2021/01/08 06:00:12;;;;;;;6.57;4.45;;;0.30;99.90;;;;;;5052024;28;20520;-61
2021/01/08 06:02:39;;;;;;;6.25;3.90;;;0.30;99.90;;;;;;5050416;28;20189;-60
2021/01/08 06:05:06;;;;;;;6.70;4.10;;;0.30;99.90;;;;;;5050934;28;20182;-60
2021/01/08 06:07:37;;;;;;;7.63;4.03;;;0.30;99.90;;;;;;5052478;28;20169;-60
2021/01/08 06:10:04;;;;;;;8.85;5.30;;;0.30;99.90;;;;;;5050333;28;20625;-60
2021/01/08 06:12:39;;;;;;;7.50;4.95;;;0.30;99.90;;;;;;5050903;28;20187;-60
2021/01/08 06:15:07;;;;;;;11.93;5.80;;;0.30;99.90;;;;;;5050751;28;20190;-60
2021/01/08 06:17:34;;;;;;;10.95;5.60;;;0.30;99.90;;;;;;5017976;28;20171;-60
2021/01/08 06:20:05;;;;;;;9.35;4.90;;;0.30;99.90;;;;;;5034202;28;20201;-60
2021/01/08 06:22:38;;;;;;;11.23;5.70;;;0.30;99.90;;;;;;5052370;28;20186;-60
2021/01/08 06:25:05;;;;;;;8.98;4.90;;;0.30;99.90;;;;;;5050664;28;20182;-60
2021/01/08 06:27:33;;;;;;;11.65;5.13;;;0.30;99.90;;;;;;5052498;28;20163;-60
2021/01/08 06:30:06;;;;;;;7.35;4.72;;;0.30;99.90;;;;;;5051957;28;20175;-60
2021/01/08 06:32:33;;;;;;;6.53;4.53;;;0.30;99.90;;;;;;5048167;28;20550;-60
2021/01/08 06:35:05;;;;;;;8.23;4.60;;;0.30;99.90;;;;;;5055141;28;20189;-60
2021/01/08 06:37:37;;;;;;;7.93;4.65;;;0.40;99.90;;;;;;5051380;28;20189;-61
2021/01/08 06:40:06;;;;;;;6.95;4.40;;;0.30;99.90;;;;;;5051733;28;20178;-61
2021/01/08 06:42:34;;;;;;;6.47;4.20;;;0.30;99.90;;;;;;5051826;28;20163;-61
2021/01/08 06:45:00;;;;;;;9.73;5.05;;;0.30;99.90;;;;;;5049632;28;20206;-61
2021/01/08 06:47:29;;;;;;;7.70;4.63;;;0.30;99.90;;;;;;5050650;28;20182;-61
2021/01/08 06:49:57;;;;;;;10.98;5.55;;;0.30;99.90;;;;;;5051398;28;20178;-61
2021/01/08 06:52:23;;;;;;;8.10;5.05;;;0.30;99.90;;;;;;5054495;28;20170;-61
2021/01/08 06:54:54;;;;;;;7.60;4.53;;;0.30;99.90;;;;;;5052297;28;20186;-61
2021/01/08 06:57:21;;;;;;;7.90;4.53;;;0.30;99.90;;;;;;5050253;28;20183;-61
2021/01/08 07:00:05;;;;;;;9.65;4.50;;;0.40;99.90;;;;;;5056980;28;20205;-61
2021/01/08 07:02:32;;;;;;;11.13;4.85;;;0.40;99.90;;;;;;5061877;28;20178;-61
2021/01/08 07:04:58;;;;;;;7.43;4.30;;;0.40;99.90;;;;;;5040154;28;20182;-61
2021/01/08 07:07:25;;;;;;;6.47;4.30;;;0.40;99.90;;;;;;5055301;28;20646;-61
2021/01/08 07:09:52;;;;;;;6.88;4.45;;;0.40;99.90;;;;;;5061857;28;20550;-61
2021/01/08 07:12:24;;;;;;;8.38;4.63;;;0.30;99.90;;;;;;5059264;28;20191;-61
2021/01/08 07:14:51;;;;;;;7.47;4.55;;;0.40;99.90;;;;;;5058712;28;20536;-60
2021/01/08 07:17:18;;;;;;;6.43;4.25;;;0.40;99.90;;;;;;5053842;28;20169;-61
2021/01/08 07:19:44;;;;;;;7.82;4.38;;;0.30;99.90;;;;;;5056875;28;20211;-61
2021/01/08 07:22:18;;;;;;;8.25;4.30;;;0.40;99.90;;;;;;5055241;28;20179;-60
2021/01/08 07:24:44;;;;;;;8.07;4.72;;;0.40;99.90;;;;;;5055262;28;20569;-61
2021/01/08 07:27:18;;;;;;;6.10;3.90;;;0.40;99.90;;;;;;5052978;28;20346;-61
2021/01/08 07:29:58;;;;;;;8.85;4.63;;;0.30;99.90;;;;;;5058876;28;20173;-61
2021/01/08 07:32:33;;;;;;;5.95;3.90;;;0.30;99.90;;;;;;5064626;28;20197;-61
2021/01/08 07:34:59;;;;;;;6.88;4.13;;;0.40;99.90;;;;;;5059783;28;20622;-61
2021/01/08 07:37:54;;;;;;;7.38;4.55;;;0.40;99.90;;;;;;5058132;28;20198;-61
2021/01/08 07:40:20;;;;;;;6.82;4.63;;;0.40;99.90;;;;;;5057884;28;20179;-61
2021/01/08 07:43:09;;;;;;;8.13;4.53;;;0.40;99.90;;;;;;5054976;28;20175;-61
2021/01/08 07:45:55;;;;;;;8.40;4.38;;;0.40;99.90;;;;;;5049992;28;20187;-60
2021/01/08 07:48:28;;;;;;;7.97;4.65;;;0.40;99.90;;;;;;5053387;28;20518;-60
2021/01/08 07:50:58;;;;;;;8.60;4.30;;;0.50;99.90;;;;;;5063526;28;20170;-60
2021/01/08 07:53:43;;;;;;;8.73;4.82;;;0.50;99.90;;;;;;5056143;28;20171;-61
2021/01/08 07:56:19;;;;;;;7.85;4.97;;;0.40;99.90;;;;;;5064062;28;20181;-61
2021/01/08 07:58:58;;;;;;;10.23;5.07;;;0.50;99.90;;;;;;5065605;28;20208;-61
2021/01/08 08:01:25;;;;;;;10.75;5.05;;;0.50;99.90;;;;;;5057957;28;20167;-61
2021/01/08 08:04:01;;;;;;;10.13;4.75;;;0.50;99.90;;;;;;5052213;28;20202;-60
2021/01/08 08:06:29;;;;;;;9.05;5.50;;;0.50;99.90;;;;;;5042383;28;20650;-60
2021/01/08 08:09:00;;;;;;;9.23;5.07;;;0.50;99.90;;;;;;5053331;28;20203;-61
2021/01/08 08:11:30;;;;;;;8.10;5.50;;;0.50;99.90;;;;;;5052863;28;20181;-60
2021/01/08 08:13:57;;;;;;;9.85;5.00;;;0.50;99.90;;;;;;5052165;28;20202;-61
2021/01/08 08:16:30;;;;;;;7.70;5.25;;;0.50;99.90;;;;;;5051566;28;20174;-60
2021/01/08 08:18:56;;;;;;;12.57;5.00;;;0.50;99.90;;;;;;5052431;28;20685;-60
2021/01/08 08:21:22;;;;;;;7.30;4.90;;;0.50;99.90;;;;;;5053042;28;20197;-61
2021/01/08 08:23:52;;;;;;;9.52;4.90;;;0.50;99.90;;;;;;5051971;28;20178;-61
2021/01/08 08:26:19;;;;;;;9.77;4.95;;;0.50;99.90;;;;;;5053292;28;20222;-61
2021/01/08 08:29:00;;;;;;;7.38;4.85;;;0.60;99.90;;;;;;5053144;28;20182;-60
2021/01/08 08:31:28;;;;;;;9.23;5.07;;;0.60;99.90;;;;;;5048998;28;20174;-61
2021/01/08 08:33:54;;;;;;;9.27;4.95;;;0.60;99.90;;;;;;5052176;28;20260;-61
2021/01/08 08:36:21;;;;;;;11.27;5.40;;;0.60;99.90;;;;;;5052768;28;20178;-60
2021/01/08 08:38:58;;;;;;;8.48;4.82;;;0.50;99.90;;;;;;5051039;28;20202;-61
2021/01/08 08:41:24;;;;;;;7.68;4.80;;;0.60;99.90;;;;;;5050039;28;20175;-61
2021/01/08 08:44:02;;;;;;;10.45;5.15;;;0.60;99.90;;;;;;5049076;28;20199;-60
2021/01/08 08:46:54;;;;;;;7.40;5.13;;;0.60;99.90;;;;;;5043630;28;20170;-60
2021/01/08 08:49:33;;;;;;;8.75;4.85;;;0.70;99.90;;;;;;5046900;28;20198;-60
2021/01/08 08:51:59;;;;;;;7.75;4.72;;;0.60;99.90;;;;;;5050291;28;20182;-61
2021/01/08 08:54:25;;;;;;;8.02;4.80;;;0.60;99.90;;;;;;5052052;28;20179;-60
2021/01/08 08:56:53;;;;;;;9.35;4.93;;;0.70;99.90;;;;;;5057300;28;20529;-60
2021/01/08 08:59:55;;;;;;;7.28;5.10;;;0.70;99.90;;;;;;5051594;28;20198;-60
2021/01/08 09:02:28;;;;;;;7.28;4.88;;;0.70;99.90;;;;;;5034672;28;20682;-60
2021/01/08 09:04:57;;;;;;;8.95;5.00;;;0.60;99.90;;;;;;5057331;28;20191;-61
2021/01/08 09:07:43;;;;;;;8.02;5.05;;;0.70;99.90;;;;;;5055658;28;20166;-61
2021/01/08 09:10:14;;;;;;;8.25;5.50;;;0.70;99.90;;;;;;5048177;28;20658;-60
2021/01/08 09:12:59;;;;;;;10.82;5.05;;;0.70;99.90;;;;;;5056172;28;20186;-61
2021/01/08 09:15:34;;;;;;;10.25;4.95;;;0.70;99.90;;;;;;5055838;28;20206;-60
2021/01/08 09:18:17;;;;;;;9.52;5.32;;;0.70;99.90;;;;;;5057571;28;20186;-60
2021/01/08 09:21:21;;;;;;;7.90;5.25;;;0.70;99.90;;;;;;5052342;28;20171;-60
2021/01/08 09:23:48;;;;;;;6.95;4.63;;;0.70;99.90;;;;;;5051558;28;20186;-60
2021/01/08 09:26:17;;;;;;;9.35;5.47;;;0.70;99.90;;;;;;5017622;28;20206;-60
2021/01/08 09:28:45;;;;;;;7.75;4.88;;;0.70;99.90;;;;;;5034552;28;20167;-60
2021/01/08 09:31:12;;;;;;;8.00;4.53;;;0.70;99.90;;;;;;5055024;28;20174;-60
2021/01/08 09:33:38;;;;;;;9.13;5.53;;;0.70;99.90;;;;;;5059964;28;20188;-59
2021/01/08 09:36:05;;;;;;;8.38;5.50;;;0.70;99.90;;;;;;5061124;28;20543;-59
2021/01/08 09:38:31;;;;;;;8.82;5.38;;;0.70;99.90;;;;;;5053194;28;20194;-60
2021/01/08 09:40:57;;;;;;;9.20;5.22;;;0.70;99.90;;;;;;5053255;28;20198;-59
2021/01/08 09:43:24;;;;;;;7.25;4.70;;;0.70;99.90;;;;;;5050451;28;20180;-59
2021/01/08 09:46:06;;;;;;;8.63;5.32;;;0.70;99.90;;;;;;5052005;28;20178;-59
2021/01/08 09:48:32;;;;;;;7.72;5.07;;;0.70;99.90;;;;;;5050864;28;20174;-59
2021/01/08 09:51:05;;;;;;;8.40;5.50;;;0.70;99.90;;;;;;5051812;28;20190;-60
2021/01/08 09:53:34;;;;;;;9.77;5.15;;;0.70;99.90;;;;;;5047639;28;20186;-60
2021/01/08 09:56:16;;;;;;;7.78;5.22;;;0.70;99.90;;;;;;5051779;28;20182;-60
2021/01/08 09:58:43;;;;;;;10.63;5.80;;;0.70;99.90;;;;;;5052532;28;20214;-60
2021/01/08 10:01:12;;;;;;;10.07;5.38;;;0.70;99.90;;;;;;5051568;28;20197;-60
2021/01/08 10:03:40;;;;;;;8.38;5.03;;;0.60;99.90;;;;;;5050743;28;20182;-59
2021/01/08 10:06:10;;;;;;;8.73;5.38;;;0.70;99.90;;;;;;5053158;28;20511;-59
2021/01/08 10:08:37;;;;;;;7.93;5.25;;;0.70;99.90;;;;;;5057661;28;20182;-59
2021/01/08 10:11:07;;;;;;;12.20;6.03;;;0.70;99.90;;;;;;5066466;28;20177;-59
2021/01/08 10:13:34;;;;;;;9.43;5.43;;;0.70;99.90;;;;;;5061201;28;20576;-59
2021/01/08 10:16:08;;;;;;;8.25;5.65;;;0.70;99.90;;;;;;5050390;28;20174;-59
2021/01/08 10:18:37;;;;;;;10.30;6.05;;;0.70;99.90;;;;;;5051612;28;20185;-59
2021/01/08 10:21:07;;;;;;;9.65;5.65;;;0.60;99.90;;;;;;5050843;28;20194;-59
2021/01/08 10:23:38;;;;;;;10.05;6.25;;;0.70;99.90;;;;;;5051588;28;20190;-60
2021/01/08 10:26:17;;;;;;;10.32;6.05;;;0.70;99.90;;;;;;5048634;28;20213;-60
2021/01/08 10:28:53;;;;;;;10.05;6.05;;;0.70;99.90;;;;;;5031710;28;20620;-60
2021/01/08 10:31:20;;;;;;;10.25;5.88;;;0.70;99.90;;;;;;5032510;28;20171;-60
2021/01/08 10:33:46;;;;;;;9.40;5.78;;;0.70;99.90;;;;;;5051359;28;20174;-60
2021/01/08 10:36:14;;;;;;;10.55;5.40;;;0.70;99.90;;;;;;5051017;28;20651;-60
2021/01/08 10:38:41;;;;;;;11.02;6.28;;;0.70;99.90;;;;;;5051001;28;20198;-60
2021/01/08 10:41:07;;;;;;;16.08;6.15;;;0.70;99.90;;;;;;5051551;28;20186;-60
2021/01/08 10:43:34;;;;;;;8.48;5.70;;;0.70;99.90;;;;;;5051371;28;20642;-60
2021/01/08 10:46:03;;;;;;;9.77;5.80;;;0.80;99.90;;;;;;5050660;28;20542;-60
2021/01/08 10:48:30;;;;;;;12.73;6.00;;;0.80;99.90;;;;;;5050329;28;20178;-60
2021/01/08 10:50:57;;;;;;;8.63;5.45;;;0.80;99.90;;;;;;5050300;28;20187;-60
2021/01/08 10:53:23;;;;;;;8.10;5.25;;;0.90;99.90;;;;;;5051295;28;20197;-60
2021/01/08 10:55:49;;;;;;;8.02;5.28;;;0.80;99.90;;;;;;5055538;28;20182;-60
2021/01/08 10:58:16;;;;;;;9.07;5.00;;;0.90;99.90;;;;;;5054133;28;20617;-60
2021/01/08 11:00:43;;;;;;;8.45;5.18;;;0.90;99.90;;;;;;5058798;28;20231;-62
2021/01/08 11:03:10;;;;;;;11.65;4.95;;;0.80;99.90;;;;;;5063626;28;20181;-60
2021/01/08 11:05:43;;;;;;;8.00;5.00;;;0.90;99.90;;;;;;5061246;28;20178;-59
2021/01/08 11:08:09;;;;;;;7.00;4.10;;;0.90;99.90;;;;;;5040876;28;20651;-59
2021/01/08 11:10:36;;;;;;;10.13;4.45;;;0.80;99.90;;;;;;5061400;28;20560;-60
2021/01/08 11:13:02;;;;;;;8.77;5.07;;;0.80;99.90;;;;;;5062898;28;20184;-59
2021/01/08 11:15:29;;;;;;;7.35;4.55;;;0.80;99.90;;;;;;5062409;28;20562;-59
2021/01/08 11:17:55;;;;;;;8.57;4.65;;;0.80;99.90;;;;;;5061503;28;20198;-59
2021/01/08 11:20:21;;;;;;;7.70;4.45;;;0.90;99.90;;;;;;5063982;28;20197;-59
2021/01/08 11:22:47;;;;;;;8.07;4.20;;;0.90;99.90;;;;;;5062158;28;20246;-59
2021/01/08 11:25:14;;;;;;;7.82;5.07;;;0.90;99.90;;;;;;5061338;28;20174;-59
2021/01/08 11:27:43;;;;;;;8.88;4.68;;;0.90;99.90;;;;;;5063020;28;20555;-59
2021/01/08 11:30:11;;;;;;;7.75;4.30;;;0.80;99.90;;;;;;5054187;28;20174;-59
2021/01/08 11:32:37;;;;;;;7.72;4.28;;;0.80;99.90;;;;;;5054285;28;20170;-59
2021/01/08 11:35:04;;;;;;;6.80;4.32;;;0.80;99.90;;;;;;5054521;28;20183;-59
2021/01/08 11:37:31;;;;;;;7.50;4.47;;;0.90;99.90;;;;;;5053443;28;20194;-59
2021/01/08 11:39:57;;;;;;;9.85;4.03;;;0.90;99.90;;;;;;5053813;28;20206;-59
2021/01/08 11:42:24;;;;;;;11.30;4.45;;;0.90;99.90;;;;;;5054219;28;20182;-59
2021/01/08 11:44:50;;;;;;;8.00;4.15;;;0.90;99.90;;;;;;5053684;28;20213;-59
2021/01/08 11:47:16;;;;;;;5.93;3.67;;;0.90;99.90;;;;;;5053112;28;20639;-59
2021/01/08 11:49:42;;;;;;;7.78;3.95;;;0.90;99.90;;;;;;5055376;28;20553;-59
2021/01/08 11:52:08;;;;;;;8.32;3.58;;;0.90;99.90;;;;;;5059687;28;20198;-59
2021/01/08 11:54:34;;;;;;;5.07;3.47;;;0.90;99.90;;;;;;5063023;28;20839;-59
2021/01/08 11:57:04;;;;;;;7.75;3.95;;;0.90;99.90;;;;;;5059937;28;20241;-59
2021/01/08 11:59:30;;;;;;;6.90;3.70;;;0.90;99.90;;;;;;5061403;28;20702;-59
2021/01/08 12:02:03;;;;;;;5.65;3.33;;;0.90;99.90;;;;;;5058597;28;20185;-59
2021/01/08 12:04:30;;;;;;;9.20;3.47;;;0.90;99.90;;;;;;5060178;28;20170;-58
2021/01/08 12:07:00;;;;;;;5.78;3.40;;;0.90;99.90;;;;;;5061421;28;20174;-59
2021/01/08 12:09:26;;;;;;;6.88;3.55;;;0.90;99.90;;;;;;5053526;28;20175;-59
2021/01/08 12:12:03;;;;;;;6.07;3.28;;;0.90;99.90;;;;;;5053017;28;20263;-59
2021/01/08 12:14:29;;;;;;;6.00;3.45;;;0.90;99.90;;;;;;5054536;28;20197;-59
2021/01/08 12:17:01;;;;;;;7.22;3.35;;;1.00;99.90;;;;;;5051758;28;20186;-60
2021/01/08 12:19:27;;;;;;;8.38;3.65;;;1.00;99.90;;;;;;5055318;28;20202;-60
2021/01/08 12:21:53;;;;;;;8.07;3.35;;;1.00;99.90;;;;;;5057023;28;20182;-59
2021/01/08 12:24:19;;;;;;;7.88;3.10;;;1.00;99.90;;;;;;5051394;28;20178;-59
2021/01/08 12:26:50;;;;;;;5.20;3.47;;;1.00;99.90;;;;;;5052870;28;20218;-59
2021/01/08 12:29:16;;;;;;;4.95;3.25;;;1.10;99.90;;;;;;5036114;28;20163;-59
2021/01/08 12:31:43;;;;;;;4.55;3.00;;;1.00;99.90;;;;;;5058484;28;20187;-59
2021/01/08 12:34:09;;;;;;;8.65;3.78;;;1.00;99.90;;;;;;5050836;28;20182;-59
2021/01/08 12:36:35;;;;;;;7.32;3.47;;;1.00;99.90;;;;;;5058103;28;20173;-59
2021/01/08 12:39:02;;;;;;;6.32;3.40;;;1.10;99.90;;;;;;5064068;28;20523;-59
2021/01/08 12:41:30;;;;;;;9.25;3.13;;;1.10;99.90;;;;;;5051828;28;20648;-59
2021/01/08 12:43:57;;;;;;;5.88;3.65;;;1.20;99.90;;;;;;5055284;28;20178;-59
2021/01/08 12:46:23;;;;;;;6.72;3.45;;;1.10;99.90;;;;;;5061365;28;20553;-59
2021/01/08 12:48:49;;;;;;;12.90;3.33;;;1.00;99.90;;;;;;5061220;28;20181;-59
2021/01/08 12:51:15;;;;;;;4.40;3.10;;;1.00;99.90;;;;;;5063900;28;20177;-59
2021/01/08 12:53:42;;;;;;;5.18;3.40;;;1.10;99.90;;;;;;5054635;28;20186;-59
2021/01/08 12:56:09;;;;;;;5.88;3.88;;;1.10;99.90;;;;;;5050607;28;20193;-59
2021/01/08 12:58:35;;;;;;;6.03;3.47;;;1.00;99.90;;;;;;5051558;28;20191;-59
2021/01/08 13:01:01;;;;;;;4.53;3.05;;;1.10;99.90;;;;;;5052671;28;20215;-59
2021/01/08 13:03:27;;;;;;;6.38;3.20;;;1.10;99.90;;;;;;5058150;28;20181;-59